Time;durP1;ratioP1;P1;durP2;ratioP2;P2;SDS_P1;SDS_P2;PMS_P1;PMS_P2;Temp;Humidity;BMP_temperature;BMP_pressure;BME280_temperature;BME280_humidity;BME280_pressure;Samples;Min_cycle;Max_cycle;Signal;HPM_P1;HPM_P2
2023/05/20 00:00:54;;;;;;;115.47;36.03;;;;;;;13.66;91.61;98270.53;4176160;28;20729;-82
2023/05/20 00:02:59;;;;;;;111.27;29.77;;;;;;;13.64;91.83;98261.16;4176374;28;20615;-83
2023/05/20 00:05:04;;;;;;;127.90;37.47;;;;;;;13.66;91.98;98266.13;4168612;28;21262;-82
2023/05/20 00:07:07;;;;;;;105.50;34.70;;;;;;;13.72;92.16;98272.69;4160737;28;20962;-82
2023/05/20 00:09:10;;;;;;;75.00;31.67;;;;;;;13.75;91.72;98269.81;4160032;28;20644;-82
2023/05/20 00:11:14;;;;;;;137.83;34.93;;;;;;;13.82;91.67;98273.66;4172292;28;20640;-82
2023/05/20 00:13:17;;;;;;;118.20;35.40;;;;;;;13.84;91.49;98264.69;4169373;28;20627;-82
2023/05/20 00:15:20;;;;;;;88.27;33.33;;;;;;;13.86;90.82;98264.56;4171668;28;20998;-83
2023/05/20 00:17:25;;;;;;;116.97;32.30;;;;;;;13.91;91.31;98265.06;4175081;28;20634;-83
2023/05/20 00:19:28;;;;;;;115.30;39.47;;;;;;;13.94;90.55;98265.66;4201823;28;20654;-82
2023/05/20 00:21:33;;;;;;;94.27;33.80;;;;;;;13.99;91.35;98267.91;4157220;28;20645;-82
2023/05/20 00:23:36;;;;;;;114.23;33.67;;;;;;;14.02;91.75;98263.25;4166532;28;21187;-82
2023/05/20 00:25:39;;;;;;;92.83;33.90;;;;;;;14.05;90.86;98252.53;4172559;28;21262;-82
2023/05/20 00:27:43;;;;;;;90.53;24.90;;;;;;;14.10;90.77;98260.06;4159205;28;20726;-82
2023/05/20 00:29:46;;;;;;;107.20;30.53;;;;;;;14.12;89.74;98252.88;4170917;28;21060;-82
2023/05/20 00:31:49;;;;;;;98.97;33.83;;;;;;;14.17;89.95;98256.81;4167799;28;21195;-82
2023/05/20 00:33:52;;;;;;;100.57;27.77;;;;;;;14.20;89.44;98256.56;4169467;28;20631;-82
2023/05/20 00:35:55;;;;;;;138.83;30.37;;;;;;;14.26;88.85;98253.47;4173654;28;20965;-82
2023/05/20 00:37:59;;;;;;;81.37;26.47;;;;;;;14.31;88.97;98259.16;4176124;28;20628;-82
2023/05/20 00:40:03;;;;;;;107.73;27.33;;;;;;;14.28;87.89;98244.53;4176742;28;21273;-82
2023/05/20 00:42:06;;;;;;;88.67;27.37;;;;;;;14.35;88.62;98250.09;4160127;28;21294;-82
2023/05/20 00:44:10;;;;;;;106.67;28.80;;;;;;;14.38;87.80;98249.84;4172469;28;20686;-82
2023/05/20 00:46:13;;;;;;;113.27;25.47;;;;;;;14.42;88.57;98251.28;4157686;28;20668;-83
2023/05/20 00:48:16;;;;;;;136.77;30.63;;;;;;;14.44;88.70;98250.19;4161046;28;20669;-82
2023/05/20 00:50:19;;;;;;;95.77;26.87;;;;;;;14.46;88.06;98250.88;4157760;28;20624;-82
2023/05/20 00:52:22;;;;;;;96.27;27.97;;;;;;;14.50;88.36;98246.22;4167529;28;20640;-82
2023/05/20 00:54:27;;;;;;;84.83;27.93;;;;;;;14.53;87.98;98246.81;4183230;28;21264;-83
2023/05/20 00:56:30;;;;;;;92.63;33.33;;;;;;;14.55;87.14;98249.31;4165429;28;20999;-83
2023/05/20 00:58:35;;;;;;;90.13;27.93;;;;;;;14.57;87.62;98248.22;4172343;28;21751;-83
2023/05/20 01:00:39;;;;;;;107.10;28.23;;;;;;;14.59;87.15;98248.94;4164051;28;20716;-82
2023/05/20 01:02:42;;;;;;;106.23;29.10;;;;;;;14.63;87.15;98250.34;4170289;28;20983;-83
2023/05/20 01:04:46;;;;;;;85.87;26.80;;;;;;;14.63;87.55;98247.72;4166355;28;20641;-83
2023/05/20 01:06:49;;;;;;;73.10;24.63;;;;;;;14.65;87.62;98249.25;4157865;28;21245;-82
2023/05/20 01:08:52;;;;;;;89.83;32.13;;;;;;;14.69;86.75;98250.69;4173686;28;20744;-82
2023/05/20 01:11:02;;;;;;;56.93;21.93;;;;;;;14.72;88.02;98249.59;4175089;28;21261;-83
2023/05/20 01:13:09;;;;;;;112.07;29.83;;;;;;;14.68;87.90;98249.00;4177167;28;20623;-82
2023/05/20 01:15:13;;;;;;;110.87;28.47;;;;;;;14.71;88.11;98247.94;4172143;28;20660;-82
2023/05/20 01:17:19;;;;;;;81.83;29.00;;;;;;;14.74;87.19;98248.50;4172994;28;20711;-82
2023/05/20 01:19:32;;;;;;;80.97;27.27;;;;;;;14.78;86.91;98246.47;4165398;28;20681;-82
2023/05/20 01:21:36;;;;;;;99.07;28.90;;;;;;;14.76;88.31;98241.34;4204023;28;20645;-82
2023/05/20 01:23:41;;;;;;;109.43;28.20;;;;;;;14.76;88.13;98241.34;4173877;28;21191;-82
2023/05/20 01:25:44;;;;;;;88.27;26.97;;;;;;;14.75;87.98;98231.78;4172494;28;21110;-83
2023/05/20 01:27:50;;;;;;;101.37;28.47;;;;;;;14.76;87.74;98236.09;4156630;28;20644;-83
2023/05/20 01:29:53;;;;;;;103.87;26.77;;;;;;;14.78;88.05;98228.09;4160008;28;20664;-82
2023/05/20 01:31:58;;;;;;;79.57;24.00;;;;;;;14.76;86.68;98243.97;4202122;28;20637;-82
2023/05/20 01:34:01;;;;;;;107.13;30.17;;;;;;;14.69;87.58;98229.69;4152432;28;20683;-82
2023/05/20 01:36:06;;;;;;;112.90;32.87;;;;;;;14.65;87.40;98228.25;4168800;28;20628;-82
2023/05/20 01:38:09;;;;;;;98.30;30.47;;;;;;;14.65;87.48;98232.69;4175426;28;20620;-83
2023/05/20 01:40:15;;;;;;;104.47;33.03;;;;;;;14.65;88.36;98227.44;4165977;28;21285;-82
2023/05/20 01:42:19;;;;;;;91.67;27.13;;;;;;;14.63;87.87;98229.34;4171370;28;20987;-82
2023/05/20 01:44:23;;;;;;;105.83;31.63;;;;;;;14.61;89.40;98229.47;4170608;28;20636;-82
2023/05/20 01:46:26;;;;;;;108.73;25.17;;;;;;;14.61;88.99;98229.47;4168119;28;20628;-83
2023/05/20 01:48:29;;;;;;;80.70;32.13;;;;;;;14.61;89.24;98231.25;4171982;28;20717;-83
2023/05/20 01:50:31;;;;;;;117.80;31.43;;;;;;;14.62;88.00;98232.94;4177778;28;20638;-83
2023/05/20 01:52:35;;;;;;;89.07;24.80;;;;;;;14.61;89.45;98223.38;4174456;28;20662;-83
2023/05/20 01:54:38;;;;;;;66.30;28.20;;;;;;;14.58;89.21;98226.25;4173734;28;20611;-82
2023/05/20 01:56:42;;;;;;;109.63;29.40;;;;;;;14.57;89.36;98229.84;4189838;28;20672;-82
2023/05/20 01:58:45;;;;;;;79.80;27.33;;;;;;;14.57;88.71;98229.00;4178464;28;20663;-83
2023/05/20 02:00:49;;;;;;;80.17;31.50;;;;;;;14.56;89.33;98222.94;4177353;28;20628;-82
2023/05/20 02:02:52;;;;;;;102.07;32.43;;;;;;;14.57;88.78;98231.63;4176727;28;21188;-82
2023/05/20 02:04:55;;;;;;;117.73;29.10;;;;;;;14.54;89.25;98235.34;4175712;28;20635;-83
2023/05/20 02:06:58;;;;;;;121.77;29.67;;;;;;;14.55;88.26;98228.31;4157302;28;20669;-82
2023/05/20 02:09:01;;;;;;;108.03;29.97;;;;;;;14.55;88.36;98229.13;4200360;28;20720;-83
2023/05/20 02:11:04;;;;;;;95.67;28.43;;;;;;;14.55;89.27;98230.94;4170785;28;20622;-82
2023/05/20 02:13:09;;;;;;;109.87;31.47;;;;;;;14.55;88.31;98230.94;4159603;28;20660;-82
2023/05/20 02:15:12;;;;;;;129.30;29.37;;;;;;;14.55;88.67;98228.31;4171033;28;20712;-82
2023/05/20 02:17:16;;;;;;;125.90;33.30;;;;;;;14.55;88.30;98226.50;4162929;28;20663;-83
2023/05/20 02:19:22;;;;;;;98.27;31.90;;;;;;;14.55;87.99;98221.25;4161999;28;20632;-83
2023/05/20 02:21:26;;;;;;;127.43;31.17;;;;;;;14.58;87.86;98221.00;4157941;28;20645;-83
2023/05/20 02:23:29;;;;;;;143.60;30.40;;;;;;;14.59;88.26;98213.00;4154263;28;20633;-83
2023/05/20 02:25:33;;;;;;;120.23;30.17;;;;;;;14.59;88.60;98210.38;4169298;28;20638;-83
2023/05/20 02:27:38;;;;;;;104.10;30.47;;;;;;;14.50;87.59;98206.84;4162223;28;20613;-82
2023/05/20 02:29:44;;;;;;;115.80;33.00;;;;;;;14.50;88.08;98210.31;4158713;28;20671;-83
2023/05/20 02:31:47;;;;;;;122.93;31.37;;;;;;;14.50;88.70;98212.94;4170335;28;20730;-82
2023/05/20 02:33:50;;;;;;;105.60;34.60;;;;;;;14.50;89.01;98214.72;4153353;28;20621;-82
2023/05/20 02:35:54;;;;;;;125.23;26.97;;;;;;;14.47;88.09;98212.34;4167691;28;20675;-83
2023/05/20 02:37:57;;;;;;;116.57;31.03;;;;;;;14.48;87.78;98220.09;4184200;28;20638;-83
2023/05/20 02:40:00;;;;;;;106.57;29.47;;;;;;;14.50;88.42;98222.59;4158027;28;20638;-83
2023/05/20 02:42:05;;;;;;;115.63;30.67;;;;;;;14.51;87.99;98219.00;4171466;28;20620;-83
2023/05/20 02:44:08;;;;;;;127.50;28.47;;;;;;;14.50;88.88;98219.97;4159797;28;20678;-83
2023/05/20 02:46:12;;;;;;;124.83;29.50;;;;;;;14.50;88.07;98218.19;4176296;28;20636;-83
2023/05/20 02:48:16;;;;;;;156.73;23.97;;;;;;;14.49;88.40;98215.69;4177009;28;20622;-83
2023/05/20 02:50:19;;;;;;;167.17;34.53;;;;;;;14.51;89.43;98213.75;4161670;28;20669;-83
2023/05/20 02:52:22;;;;;;;137.07;30.77;;;;;;;14.51;88.44;98219.00;4169612;28;20697;-82
2023/05/20 02:54:25;;;;;;;163.87;32.07;;;;;;;14.45;88.71;98214.25;4169946;28;20617;-83
2023/05/20 02:56:28;;;;;;;142.23;31.63;;;;;;;14.42;88.67;98204.03;4197764;28;20688;-83
2023/05/20 02:58:32;;;;;;;123.03;28.63;;;;;;;14.42;88.67;98199.63;4174393;28;20695;-83
2023/05/20 03:00:39;;;;;;;145.90;36.13;;;;;;;14.40;89.21;98206.78;4169420;28;20631;-83
2023/05/20 03:02:44;;;;;;;115.33;30.23;;;;;;;14.40;88.20;98213.81;4172769;28;20703;-83
2023/05/20 03:04:47;;;;;;;135.23;38.10;;;;;;;14.38;88.42;98198.19;4183590;28;20639;-83
2023/05/20 03:06:51;;;;;;;149.43;30.90;;;;;;;14.41;88.01;98213.69;4155118;28;21228;-82
2023/05/20 03:08:55;;;;;;;134.83;28.13;;;;;;;14.39;88.20;98215.59;4168255;28;20639;-83
2023/05/20 03:10:58;;;;;;;117.20;30.27;;;;;;;14.37;89.57;98216.69;4185511;28;21177;-83
2023/05/20 03:13:02;;;;;;;169.37;26.63;;;;;;;14.39;88.53;98212.97;4157425;28;21222;-83
2023/05/20 03:15:07;;;;;;;130.57;30.67;;;;;;;14.38;88.94;98218.34;4202390;28;20646;-83
2023/05/20 03:17:11;;;;;;;129.13;28.60;;;;;;;14.38;89.57;98207.84;4159479;28;20633;-83
2023/05/20 03:19:16;;;;;;;109.67;34.73;;;;;;;14.43;89.67;98221.44;4166146;28;20630;-83
2023/05/20 03:21:22;;;;;;;107.90;34.43;;;;;;;14.39;90.08;98220.03;4175767;28;20612;-83
2023/05/20 03:23:26;;;;;;;113.00;38.23;;;;;;;14.36;89.42;98220.28;4171685;28;21068;-83
2023/05/20 03:25:29;;;;;;;143.83;27.60;;;;;;;14.33;89.40;98217.91;4171392;28;22368;-83
2023/05/20 03:27:33;;;;;;;128.03;31.40;;;;;;;14.36;90.47;98217.66;4176064;28;20628;-83
2023/05/20 03:29:36;;;;;;;116.87;29.77;;;;;;;14.37;90.14;98221.94;4169007;28;20676;-82
2023/05/20 03:31:39;;;;;;;135.17;29.17;;;;;;;14.37;90.10;98214.91;4160797;28;20627;-83
2023/05/20 03:33:44;;;;;;;146.23;30.17;;;;;;;14.39;90.49;98220.03;4172486;28;20636;-83
2023/05/20 03:35:49;;;;;;;81.10;28.40;;;;;;;14.43;89.35;98214.38;4174879;28;20621;-83
2023/05/20 03:37:52;;;;;;;120.63;34.13;;;;;;;14.40;89.71;98221.69;4155551;28;20666;-83
2023/05/20 03:39:58;;;;;;;134.63;29.60;;;;;;;14.41;90.49;98220.72;4161430;28;20682;-83
2023/05/20 03:42:01;;;;;;;86.70;26.07;;;;;;;14.45;90.25;98217.72;4172954;28;21172;-83
2023/05/20 03:44:05;;;;;;;145.23;33.77;;;;;;;14.51;90.49;98216.38;4182810;28;20698;-83
2023/05/20 03:46:08;;;;;;;117.77;38.90;;;;;;;14.54;90.06;98226.63;4173963;28;20641;-83
2023/05/20 03:48:11;;;;;;;141.47;27.30;;;;;;;14.58;90.20;98220.19;4158072;28;20632;-83
2023/05/20 03:50:14;;;;;;;154.37;27.47;;;;;;;14.59;89.54;98222.69;4157062;28;20693;-83
2023/05/20 03:52:19;;;;;;;119.87;25.93;;;;;;;14.62;90.83;98222.44;4159791;28;20645;-83
2023/05/20 03:54:22;;;;;;;166.60;30.83;;;;;;;14.63;89.66;98229.34;4167521;28;20668;-83
2023/05/20 03:56:27;;;;;;;111.60;26.23;;;;;;;14.66;89.07;98229.09;4200223;28;20670;-83
2023/05/20 03:58:30;;;;;;;143.27;27.23;;;;;;;14.68;90.10;98235.88;4175008;28;20626;-83
2023/05/20 04:00:33;;;;;;;134.47;28.47;;;;;;;14.71;90.37;98235.63;4171828;28;21004;-83
2023/05/20 04:02:37;;;;;;;157.57;29.57;;;;;;;14.74;90.38;98232.75;4169712;28;20633;-83
2023/05/20 04:04:42;;;;;;;99.77;27.77;;;;;;;14.75;89.39;98234.44;4161190;28;20625;-83
2023/05/20 04:06:45;;;;;;;143.70;33.63;;;;;;;14.79;90.24;98241.09;4170371;28;21056;-83
2023/05/20 04:08:51;;;;;;;146.10;31.37;;;;;;;14.83;88.64;98237.25;4157864;28;20629;-83
2023/05/20 04:10:56;;;;;;;104.00;24.97;;;;;;;14.84;89.74;98236.28;4166297;28;20721;-83
2023/05/20 04:12:59;;;;;;;124.53;24.97;;;;;;;14.87;87.94;98233.41;4160493;28;20632;-83
2023/05/20 04:15:03;;;;;;;109.10;26.97;;;;;;;14.87;87.62;98237.81;4203628;28;21017;-83
2023/05/20 04:17:29;;;;;;;122.97;30.27;;;;;;;14.93;89.26;98238.16;4175668;28;20642;-83
2023/05/20 04:19:33;;;;;;;125.27;28.60;;;;;;;15.00;88.55;98239.28;4167384;28;21236;-83
2023/05/20 04:21:37;;;;;;;113.17;31.77;;;;;;;15.06;88.92;98230.91;4172108;28;20668;-83
2023/05/20 04:23:40;;;;;;;99.00;27.00;;;;;;;15.11;87.81;98234.00;4170389;28;21202;-83
2023/05/20 04:25:45;;;;;;;135.03;24.77;;;;;;;15.17;87.87;98241.41;4161081;28;20988;-83
2023/05/20 04:27:48;;;;;;;133.03;30.03;;;;;;;15.22;89.58;98239.19;4168899;28;20624;-83
2023/05/20 04:29:54;;;;;;;125.33;27.97;;;;;;;15.27;87.37;98244.91;4178270;28;20647;-83
2023/05/20 04:31:58;;;;;;;137.63;23.07;;;;;;;15.29;88.88;98241.19;4160330;28;20647;-83
2023/05/20 04:34:01;;;;;;;91.87;27.13;;;;;;;15.38;89.08;98248.28;4171505;28;20621;-83
2023/05/20 04:36:10;;;;;;;112.07;26.77;;;;;;;15.46;89.05;98240.56;4165993;28;20639;-83
2023/05/20 04:38:15;;;;;;;133.03;27.97;;;;;;;15.54;88.40;98234.66;4170382;28;20666;-83
2023/05/20 04:40:18;;;;;;;170.57;31.17;;;;;;;15.60;88.66;98227.06;4167340;28;20620;-83
2023/05/20 04:42:22;;;;;;;153.23;31.63;;;;;;;15.68;87.26;98235.13;4172057;28;20678;-83
2023/05/20 04:44:27;;;;;;;137.70;26.47;;;;;;;15.71;86.94;98225.19;4173125;28;20664;-83
2023/05/20 04:46:30;;;;;;;116.27;27.73;;;;;;;15.81;88.21;98227.84;4171024;28;20733;-83
2023/05/20 04:48:33;;;;;;;144.33;30.43;;;;;;;15.88;87.17;98232.44;4162001;28;20666;-83
2023/05/20 04:50:38;;;;;;;135.43;27.90;;;;;;;15.95;87.73;98222.22;4172983;28;20649;-83
2023/05/20 04:52:44;;;;;;;149.83;28.97;;;;;;;16.03;87.52;98234.56;4176825;28;20752;-83
2023/05/20 04:54:49;;;;;;;123.90;27.30;;;;;;;16.13;86.83;98239.84;4159382;28;20624;-83
2023/05/20 04:56:53;;;;;;;150.00;30.73;;;;;;;16.23;86.66;98240.75;4170755;28;20666;-83
2023/05/20 04:58:58;;;;;;;146.07;29.17;;;;;;;16.33;88.06;98238.97;4176997;28;20633;-83
2023/05/20 05:01:01;;;;;;;108.97;33.07;;;;;;;16.45;85.85;98245.75;4172959;28;21061;-82
2023/05/20 05:03:04;;;;;;;188.23;29.20;;;;;;;16.44;84.50;98233.56;4157957;28;20626;-82
2023/05/20 05:05:08;;;;;;;147.13;28.97;;;;;;;16.41;83.26;98239.13;4164977;28;20645;-82
2023/05/20 05:07:13;;;;;;;137.83;27.77;;;;;;;16.42;85.02;98232.84;4165725;28;20629;-83
2023/05/20 05:09:16;;;;;;;126.97;30.67;;;;;;;16.42;82.84;98232.84;4166186;28;20624;-82
2023/05/20 05:11:19;;;;;;;135.23;27.83;;;;;;;16.40;84.58;98232.16;4168130;28;20685;-82
2023/05/20 05:13:23;;;;;;;158.30;24.77;;;;;;;16.42;84.11;98238.13;4163567;28;20635;-83
2023/05/20 05:15:27;;;;;;;193.90;28.50;;;;;;;16.37;83.91;98235.91;4167520;28;20656;-82
2023/05/20 05:17:31;;;;;;;145.67;28.57;;;;;;;16.28;83.69;98223.59;4176892;28;20627;-82
2023/05/20 05:19:34;;;;;;;151.83;29.97;;;;;;;16.24;83.50;98224.00;4175167;28;20636;-82
2023/05/20 05:21:38;;;;;;;158.17;27.53;;;;;;;16.17;83.81;98209.66;4150485;28;20631;-82
2023/05/20 05:23:41;;;;;;;150.97;31.43;;;;;;;16.15;83.06;98216.88;4166802;28;21044;-82
2023/05/20 05:25:44;;;;;;;211.97;35.40;;;;;;;16.13;84.96;98206.47;4151507;28;21208;-82
2023/05/20 05:27:49;;;;;;;327.13;27.07;;;;;;;16.07;85.33;98208.81;4169812;28;20700;-82
2023/05/20 05:29:52;;;;;;;145.97;32.13;;;;;;;16.09;83.29;98217.41;4163550;28;20639;-82
2023/05/20 05:31:56;;;;;;;159.47;36.17;;;;;;;16.15;83.56;98217.69;4174291;28;20661;-83
2023/05/20 05:34:00;;;;;;;137.03;27.03;;;;;;;16.22;83.58;98218.88;4174184;28;20632;-82
2023/05/20 05:36:04;;;;;;;137.80;28.73;;;;;;;16.43;84.17;98219.56;4172292;28;20621;-82
2023/05/20 05:38:07;;;;;;;199.07;26.43;;;;;;;16.57;83.08;98225.25;4178807;28;21030;-82
2023/05/20 05:40:12;;;;;;;122.00;23.97;;;;;;;16.75;81.89;98226.25;4170052;28;20623;-82
2023/05/20 05:42:15;;;;;;;224.93;35.00;;;;;;;16.81;81.30;98228.31;4178736;28;20623;-82
2023/05/20 05:44:18;;;;;;;192.97;25.57;;;;;;;16.79;82.58;98214.44;4172661;28;20622;-83
2023/05/20 05:46:21;;;;;;;178.50;31.47;;;;;;;17.03;81.84;98214.81;4175245;28;20625;-82
2023/05/20 05:48:26;;;;;;;180.77;34.57;;;;;;;17.30;80.93;98222.84;4179469;28;21199;-82
2023/05/20 05:50:29;;;;;;;135.10;26.30;;;;;;;17.53;80.28;98207.38;4183483;28;21846;-83
2023/05/20 05:52:32;;;;;;;222.27;31.07;;;;;;;17.80;79.66;98223.25;4171702;28;20986;-83
2023/05/20 05:54:37;;;;;;;117.73;26.73;;;;;;;17.99;79.81;98220.50;4154775;28;20637;-82
2023/05/20 05:56:42;;;;;;;142.17;22.90;;;;;;;18.01;77.97;98218.53;4173145;28;20633;-83
2023/05/20 05:58:47;;;;;;;144.13;31.47;;;;;;;18.12;77.57;98211.25;4172242;28;21030;-82
2023/05/20 06:00:51;;;;;;;126.60;23.60;;;;;;;18.18;77.05;98215.16;4176480;28;20614;-83
2023/05/20 06:02:54;;;;;;;156.40;25.07;;;;;;;18.17;76.82;98200.28;4158657;28;20631;-83
2023/05/20 06:05:17;;;;;;;175.00;28.17;;;;;;;18.43;78.31;98226.66;4175299;28;20621;-82
2023/05/20 06:07:21;;;;;;;195.90;27.43;;;;;;;18.81;77.88;98229.00;4175445;28;20633;-82
2023/05/20 06:09:24;;;;;;;279.47;38.80;;;;;;;18.99;75.62;98224.53;4169025;28;20623;-82
2023/05/20 06:11:28;;;;;;;123.47;22.63;;;;;;;19.09;74.55;98220.00;4177789;28;20663;-82
2023/05/20 06:13:31;;;;;;;167.87;30.27;;;;;;;19.37;75.64;98224.19;4159995;28;20682;-82
2023/05/20 06:15:35;;;;;;;137.37;25.27;;;;;;;19.69;74.63;98231.31;4159984;28;20625;-82
2023/05/20 06:17:38;;;;;;;179.67;22.93;;;;;;;19.68;73.25;98227.00;4170355;28;20619;-82
2023/05/20 06:19:42;;;;;;;175.93;19.60;;;;;;;19.51;72.76;98221.78;4169905;28;20660;-83
2023/05/20 06:21:46;;;;;;;180.17;34.17;;;;;;;19.53;74.43;98223.28;4160894;28;21185;-82
2023/05/20 06:23:50;;;;;;;213.77;25.63;;;;;;;19.75;74.52;98225.38;4162743;28;20632;-82
2023/05/20 06:25:57;;;;;;;175.10;24.20;;;;;;;19.68;72.23;98205.84;4167057;28;20628;-83
2023/05/20 06:28:01;;;;;;;168.47;23.97;;;;;;;19.81;71.86;98208.03;4168025;28;21231;-82
2023/05/20 06:30:05;;;;;;;181.57;29.03;;;;;;;19.90;72.90;98203.47;4162244;28;21054;-83
2023/05/20 06:32:08;;;;;;;238.47;21.27;;;;;;;20.11;73.90;98211.00;4189492;28;20659;-82
2023/05/20 06:34:11;;;;;;;209.50;29.90;;;;;;;20.32;71.62;98214.88;4155501;28;20622;-83
2023/05/20 06:36:15;;;;;;;153.53;24.07;;;;;;;20.44;71.68;98208.28;4170825;28;20632;-83
2023/05/20 06:38:19;;;;;;;167.43;23.53;;;;;;;20.40;70.91;98197.19;4179603;28;20643;-83
2023/05/20 06:40:22;;;;;;;161.50;22.90;;;;;;;20.52;70.84;98190.59;4156808;28;20668;-82
2023/05/20 06:42:26;;;;;;;187.77;24.37;;;;;;;20.66;70.10;98189.09;4174850;28;20628;-82
2023/05/20 06:44:41;;;;;;;180.57;27.83;;;;;;;20.63;69.62;98192.91;4152445;28;20632;-83
2023/05/20 06:47:07;;;;;;;186.33;26.97;;;;;;;20.84;72.22;98198.59;4159659;28;20628;-82
2023/05/20 06:49:11;;;;;;;173.40;27.83;;;;;;;21.06;71.38;98206.69;4178304;28;20625;-82
2023/05/20 06:51:14;;;;;;;129.90;28.53;;;;;;;20.95;69.08;98192.97;4175851;28;20640;-82
2023/05/20 06:53:22;;;;;;;165.60;24.23;;;;;;;20.80;70.46;98191.97;4164203;28;20654;-82
2023/05/20 06:55:26;;;;;;;207.53;28.23;;;;;;;20.64;71.25;98189.28;4199067;28;20705;-82
2023/05/20 06:57:29;;;;;;;209.27;24.97;;;;;;;20.89;70.28;98198.94;4172533;28;20689;-82
2023/05/20 06:59:32;;;;;;;158.93;24.67;;;;;;;21.00;69.89;98202.09;4168564;28;20750;-82
2023/05/20 07:01:35;;;;;;;149.40;21.87;;;;;;;20.84;69.89;98195.94;4174319;28;20657;-82
2023/05/20 07:03:39;;;;;;;415.67;31.57;;;;;;;21.24;69.41;98198.56;4167859;28;20737;-82
2023/05/20 07:05:42;;;;;;;147.07;25.63;;;;;;;21.47;69.50;98201.22;4168998;28;20660;-82
2023/05/20 07:07:46;;;;;;;89.27;18.67;;;;;;;21.75;69.91;98205.13;4151854;28;20619;-82
2023/05/20 07:09:52;;;;;;;150.87;20.33;;;;;;;21.67;68.82;98197.19;4157474;28;20637;-82
2023/05/20 07:11:55;;;;;;;175.00;29.57;;;;;;;21.44;67.77;98187.41;4169460;28;20758;-82
2023/05/20 07:13:59;;;;;;;125.50;21.07;;;;;;;21.05;68.98;98178.53;4174096;28;20620;-82
2023/05/20 07:16:05;;;;;;;169.43;21.43;;;;;;;21.17;68.85;98187.81;4168807;28;20666;-82
2023/05/20 07:18:10;;;;;;;119.73;23.37;;;;;;;21.27;69.41;98182.31;4176107;28;20743;-82
2023/05/20 07:20:13;;;;;;;115.47;24.40;;;;;;;21.32;68.82;98176.34;4182002;28;20639;-82
2023/05/20 07:22:17;;;;;;;112.00;22.67;;;;;;;21.57;69.47;98179.78;4178586;28;20638;-82
2023/05/20 07:24:29;;;;;;;165.60;21.63;;;;;;;21.42;68.21;98166.38;4196697;28;20625;-82
2023/05/20 07:26:35;;;;;;;133.60;21.47;;;;;;;21.28;69.36;98167.03;4171487;28;20631;-82
2023/05/20 07:28:38;;;;;;;114.87;26.03;;;;;;;21.79;69.79;98166.59;4173254;28;20653;-82
2023/05/20 07:30:41;;;;;;;117.23;22.00;;;;;;;22.34;68.26;98177.00;4161896;28;20705;-82
2023/05/20 07:32:52;;;;;;;171.10;22.83;;;;;;;22.73;66.75;98175.03;4175696;28;20714;-82
2023/05/20 07:34:56;;;;;;;121.20;21.20;;;;;;;22.59;68.20;98172.34;4175583;28;20709;-82
2023/05/20 07:36:59;;;;;;;175.10;24.07;;;;;;;22.32;67.20;98170.19;4177321;28;20630;-82
2023/05/20 07:39:02;;;;;;;174.83;20.80;;;;;;;22.15;67.29;98165.94;4176107;28;20726;-82
2023/05/20 07:41:11;;;;;;;121.50;23.27;;;;;;;21.51;67.73;98149.41;4152768;28;20635;-83
2023/05/20 07:43:16;;;;;;;172.60;30.03;;;;;;;20.85;68.20;98136.59;4160182;28;21587;-83
2023/05/20 07:45:19;;;;;;;171.40;23.33;;;;;;;20.49;69.47;98132.59;4178217;28;20655;-83
2023/05/20 07:47:23;;;;;;;140.37;23.23;;;;;;;20.53;69.93;98138.38;4176869;28;20709;-82
2023/05/20 07:49:26;;;;;;;191.07;24.20;;;;;;;20.83;69.34;98141.25;4169214;28;20626;-82
2023/05/20 07:51:30;;;;;;;180.83;21.33;;;;;;;20.95;70.75;98146.03;4161597;28;20624;-82
2023/05/20 07:53:33;;;;;;;117.50;19.77;;;;;;;21.21;68.22;98135.22;4170012;28;20700;-82
2023/05/20 07:55:37;;;;;;;149.13;21.03;;;;;;;21.31;68.12;98144.66;4153271;28;20642;-82
2023/05/20 07:57:41;;;;;;;149.87;24.97;;;;;;;21.49;68.45;98142.66;4168489;28;20653;-82
2023/05/20 07:59:48;;;;;;;131.43;22.93;;;;;;;21.65;67.61;98151.41;4168432;28;20725;-82
2023/05/20 08:01:51;;;;;;;117.07;25.87;;;;;;;21.61;67.26;98135.97;4156639;28;20662;-83
2023/05/20 08:03:55;;;;;;;114.80;24.20;;;;;;;21.75;67.64;98145.88;4158873;28;20663;-82
2023/05/20 08:06:00;;;;;;;117.00;18.50;;;;;;;21.86;66.51;98141.00;4175967;28;20654;-82
2023/05/20 08:08:04;;;;;;;132.20;24.03;;;;;;;22.06;66.47;98134.28;4186244;28;20622;-82
2023/05/20 08:10:18;;;;;;;129.80;25.97;;;;;;;21.82;66.42;98129.06;4187404;28;20664;-82
2023/05/20 08:12:21;;;;;;;136.53;21.70;;;;;;;21.70;67.09;98111.84;4204377;28;20649;-82
2023/05/20 08:14:27;;;;;;;134.37;27.17;;;;;;;21.79;67.92;98110.81;4182437;28;20618;-82
2023/05/20 08:16:32;;;;;;;184.77;20.93;;;;;;;21.84;67.22;98117.25;4168420;28;20725;-82
2023/05/20 08:18:36;;;;;;;142.33;22.33;;;;;;;21.78;66.99;98125.09;4167929;28;20679;-82
2023/05/20 08:20:41;;;;;;;168.67;24.97;;;;;;;21.47;68.34;98121.59;4191688;28;21231;-82
2023/05/20 08:22:44;;;;;;;186.67;25.20;;;;;;;21.60;68.13;98121.84;4169484;28;20655;-82
2023/05/20 08:24:47;;;;;;;178.87;27.23;;;;;;;21.68;67.76;98115.69;4172955;28;20656;-82
2023/05/20 08:26:51;;;;;;;140.27;24.53;;;;;;;21.75;67.63;98117.47;4174592;28;20993;-82
2023/05/20 08:28:55;;;;;;;182.07;24.97;;;;;;;21.98;66.54;98116.53;4154724;28;20645;-82
2023/05/20 08:31:01;;;;;;;82.87;18.83;;;;;;;21.90;66.29;98118.41;4185405;28;20634;-82
2023/05/20 08:33:07;;;;;;;152.17;24.30;;;;;;;21.93;65.69;98112.75;4197328;28;20650;-83
2023/05/20 08:35:12;;;;;;;142.60;21.37;;;;;;;22.26;67.16;98126.50;4182720;28;20699;-82
2023/05/20 08:37:15;;;;;;;185.57;26.67;;;;;;;22.48;65.28;98135.53;4189473;28;20657;-82
2023/05/20 08:39:19;;;;;;;196.67;22.00;;;;;;;22.66;66.22;98134.22;4174400;28;20640;-82
2023/05/20 08:41:23;;;;;;;119.00;23.60;;;;;;;22.91;64.69;98139.16;4177134;28;20697;-82
2023/05/20 08:43:29;;;;;;;107.67;21.10;;;;;;;22.93;65.60;98125.69;4157331;28;20641;-82
2023/05/20 08:45:38;;;;;;;163.10;22.80;;;;;;;23.02;64.72;98138.75;4177275;28;20627;-82
2023/05/20 08:47:46;;;;;;;145.53;20.93;;;;;;;22.62;65.21;98126.78;4157398;28;20634;-82
2023/05/20 08:49:51;;;;;;;209.03;22.20;;;;;;;22.43;65.75;98117.44;4173048;28;20656;-82
2023/05/20 08:51:54;;;;;;;114.57;17.10;;;;;;;22.33;66.38;98119.50;4169511;28;20699;-82
2023/05/20 08:53:59;;;;;;;153.83;23.20;;;;;;;22.44;65.29;98119.06;4169615;28;20676;-82
2023/05/20 08:56:03;;;;;;;150.17;19.53;;;;;;;22.60;65.64;98120.81;4174735;28;20636;-82
2023/05/20 08:58:06;;;;;;;154.57;20.13;;;;;;;22.64;65.57;98120.25;4178520;28;20717;-82
2023/05/20 09:00:12;;;;;;;151.73;18.67;;;;;;;22.64;64.40;98111.44;4178804;28;20641;-82
2023/05/20 09:02:15;;;;;;;171.03;22.57;;;;;;;22.52;64.63;98110.22;4175016;28;20616;-82
2023/05/20 09:04:18;;;;;;;188.47;27.07;;;;;;;22.44;64.33;98108.44;4158142;28;20689;-83
2023/05/20 09:06:23;;;;;;;112.50;22.33;;;;;;;22.52;65.36;98110.22;4174881;28;20656;-82
2023/05/20 09:08:26;;;;;;;131.20;22.20;;;;;;;22.34;64.96;98105.22;4172553;28;20629;-83
2023/05/20 09:10:29;;;;;;;179.10;25.90;;;;;;;22.13;64.85;98098.00;4164073;28;20628;-82
2023/05/20 09:12:32;;;;;;;119.63;22.60;;;;;;;22.06;66.20;98086.44;4177646;28;20743;-82
2023/05/20 09:14:36;;;;;;;158.47;23.67;;;;;;;21.92;66.29;98089.81;4171464;28;20747;-82
2023/05/20 09:16:39;;;;;;;154.67;21.13;;;;;;;21.93;66.48;98091.47;4177016;28;20725;-82
2023/05/20 09:18:42;;;;;;;183.33;22.77;;;;;;;21.96;66.48;98091.13;4166219;28;21062;-83
2023/05/20 09:20:47;;;;;;;195.50;28.27;;;;;;;22.21;65.84;98090.84;4163909;28;20729;-83
2023/05/20 09:22:52;;;;;;;182.73;26.97;;;;;;;22.21;65.29;98084.72;4177160;28;20626;-83
2023/05/20 09:24:56;;;;;;;170.83;20.57;;;;;;;22.26;65.32;98085.81;4176361;28;20638;-83